createdAt,value
2023-05-09T00:01:18.132Z,48.90
2023-05-09T00:03:46.061Z,48.90
2023-05-09T00:06:15.515Z,48.90
2023-05-09T00:08:43.548Z,48.90
2023-05-09T00:11:11.730Z,49.50
2023-05-09T00:13:39.837Z,48.90
2023-05-09T00:16:10.570Z,48.90
2023-05-09T00:18:42.326Z,48.90
2023-05-09T00:21:11.066Z,48.90
2023-05-09T00:23:39.194Z,48.90
2023-05-09T00:26:07.502Z,48.90
2023-05-09T00:28:35.442Z,49.00
2023-05-09T00:31:04.275Z,48.80
2023-05-09T00:33:33.633Z,48.90
2023-05-09T00:36:01.605Z,48.90
2023-05-09T00:38:29.556Z,48.90
2023-05-09T00:40:57.507Z,48.80
2023-05-09T00:43:25.815Z,48.80
2023-05-09T00:45:53.793Z,48.90
2023-05-09T00:48:22.393Z,48.80
2023-05-09T00:50:53.216Z,48.90
2023-05-09T00:53:21.676Z,48.80
2023-05-09T00:55:49.924Z,48.90
2023-05-09T00:58:19.372Z,48.80
2023-05-09T01:00:48.040Z,49.50
2023-05-09T01:03:16.304Z,48.80
2023-05-09T01:05:52.305Z,48.80
2023-05-09T01:08:28.640Z,48.80
2023-05-09T01:10:59.483Z,48.80
2023-05-09T01:13:31.760Z,48.80
2023-05-09T01:16:06.086Z,48.80
2023-05-09T01:18:39.230Z,48.80
2023-05-09T01:21:08.918Z,48.80
2023-05-09T01:23:49.608Z,48.90
2023-05-09T01:26:21.767Z,49.00
2023-05-09T01:29:02.697Z,48.80
2023-05-09T01:31:32.592Z,48.80
2023-05-09T01:34:03.790Z,48.90
2023-05-09T01:36:33.411Z,48.90
2023-05-09T01:39:04.353Z,48.90
2023-05-09T01:41:33.259Z,48.90
2023-05-09T01:44:03.225Z,48.90
2023-05-09T01:46:32.712Z,48.90
2023-05-09T01:49:01.358Z,48.90
2023-05-09T01:51:30.146Z,49.00
2023-05-09T01:53:58.789Z,49.00
2023-05-09T01:56:26.849Z,49.00
2023-05-09T01:58:56.008Z,49.00
2023-05-09T02:01:25.030Z,48.90
2023-05-09T02:03:55.343Z,49.00
2023-05-09T02:06:24.241Z,49.00
2023-05-09T02:08:52.263Z,49.00
2023-05-09T02:11:20.202Z,49.70
2023-05-09T02:13:48.173Z,49.00
2023-05-09T02:16:16.519Z,49.00
2023-05-09T02:18:44.483Z,48.90
2023-05-09T02:21:13.867Z,48.90
2023-05-09T02:23:41.838Z,49.00
2023-05-09T02:26:09.913Z,49.00
2023-05-09T02:28:39.335Z,49.00
2023-05-09T02:31:07.685Z,48.90
2023-05-09T02:33:37.997Z,49.00
2023-05-09T02:36:06.596Z,49.00
2023-05-09T02:38:36.280Z,49.00
2023-05-09T02:41:04.229Z,49.00
2023-05-09T02:43:32.162Z,49.00
2023-05-09T02:46:00.201Z,49.10
2023-05-09T02:48:28.206Z,49.00
2023-05-09T02:50:57.159Z,49.00
2023-05-09T02:53:25.129Z,49.10
2023-05-09T02:55:54.464Z,49.00
2023-05-09T02:58:22.417Z,49.00
2023-05-09T03:00:50.980Z,49.00
2023-05-09T03:03:19.346Z,48.90
2023-05-09T03:05:47.349Z,48.90
2023-05-09T03:08:16.055Z,48.90
2023-05-09T03:10:43.979Z,48.90
2023-05-09T03:13:13.309Z,48.90
2023-05-09T03:15:41.458Z,48.80
2023-05-09T03:18:09.469Z,48.90
2023-05-09T03:20:37.464Z,48.80
2023-05-09T03:23:05.384Z,48.90
2023-05-09T03:25:33.312Z,49.00
2023-05-09T03:28:01.240Z,48.80
2023-05-09T03:30:30.558Z,48.80
2023-05-09T03:32:58.575Z,48.80
2023-05-09T03:35:26.543Z,48.90
2023-05-09T03:37:54.485Z,48.80
2023-05-09T03:40:22.415Z,48.80
2023-05-09T03:42:50.533Z,48.70
2023-05-09T03:45:18.506Z,48.70
2023-05-09T03:47:47.883Z,48.80
2023-05-09T03:50:15.956Z,48.80
2023-05-09T03:52:43.935Z,48.80
2023-05-09T03:55:12.158Z,48.70
2023-05-09T03:57:40.209Z,48.80
2023-05-09T04:00:10.278Z,48.70
2023-05-09T04:02:38.248Z,48.80
2023-05-09T04:05:07.887Z,48.70
2023-05-09T04:07:35.838Z,48.80
2023-05-09T04:10:03.804Z,48.70
2023-05-09T04:12:31.754Z,48.60
2023-05-09T04:14:59.946Z,48.70
2023-05-09T04:17:27.954Z,48.60
2023-05-09T04:19:56.311Z,48.70
2023-05-09T04:22:25.817Z,48.50
2023-05-09T04:24:53.739Z,48.60
2023-05-09T04:27:21.823Z,48.20
2023-05-09T04:29:49.877Z,48.20
2023-05-09T04:32:17.818Z,48.20
2023-05-09T04:34:45.737Z,48.20
2023-05-09T04:37:13.930Z,48.30
2023-05-09T04:39:43.475Z,48.40
2023-05-09T04:42:11.648Z,48.50
2023-05-09T04:44:39.560Z,48.50
2023-05-09T04:47:07.468Z,48.60
2023-05-09T04:49:35.406Z,48.60
2023-05-09T04:52:03.321Z,48.60
2023-05-09T04:54:31.286Z,48.80
2023-05-09T04:57:10.195Z,48.80
2023-05-09T04:59:42.059Z,48.90
2023-05-09T05:02:09.958Z,49.60
2023-05-09T05:04:38.046Z,49.00
2023-05-09T05:07:06.267Z,49.00
2023-05-09T05:09:34.211Z,49.10
2023-05-09T05:12:09.118Z,49.20
2023-05-09T05:14:37.643Z,49.30
2023-05-09T05:17:05.531Z,49.30
2023-05-09T05:19:34.160Z,49.30
2023-05-09T05:22:02.137Z,49.40
2023-05-09T05:24:30.077Z,49.40
2023-05-09T05:26:58.020Z,49.50
2023-05-09T05:29:27.361Z,49.60
2023-05-09T05:31:55.597Z,49.70
2023-05-09T05:34:23.640Z,49.70
2023-05-09T05:36:51.566Z,49.70
2023-05-09T05:39:19.487Z,49.60
2023-05-09T05:41:47.484Z,49.60
2023-05-09T05:44:15.398Z,49.60
2023-05-09T05:46:44.728Z,49.50
2023-05-09T05:49:12.637Z,49.60
2023-05-09T05:51:40.811Z,50.10
2023-05-09T05:54:08.710Z,49.40
2023-05-09T05:56:36.644Z,49.20
2023-05-09T05:59:04.561Z,49.20
2023-05-09T06:01:32.476Z,49.00
2023-05-09T06:04:01.810Z,49.00
2023-05-09T06:06:29.852Z,48.90
2023-05-09T06:08:57.874Z,48.90
2023-05-09T06:11:25.903Z,48.80
2023-05-09T06:13:53.852Z,48.60
2023-05-09T06:16:22.226Z,49.10
2023-05-09T06:18:50.328Z,49.50
2023-05-09T06:21:19.597Z,49.60
2023-05-09T06:24:04.268Z,49.60
2023-05-09T06:26:34.202Z,49.40
2023-05-09T06:29:02.203Z,49.10
2023-05-09T06:31:30.152Z,49.10
2023-05-09T06:33:58.110Z,49.00
2023-05-09T06:36:27.404Z,48.70
2023-05-09T06:38:55.328Z,48.40
2023-05-09T06:41:23.274Z,48.10
2023-05-09T06:43:51.301Z,48.20
2023-05-09T06:46:19.369Z,48.20
2023-05-09T06:48:47.318Z,48.20
2023-05-09T06:51:15.254Z,47.90
2023-05-09T06:53:44.612Z,47.90
2023-05-09T06:56:12.853Z,47.80
2023-05-09T06:58:40.915Z,47.80
2023-05-09T07:01:08.919Z,47.60
2023-05-09T07:03:36.830Z,47.40
2023-05-09T07:06:05.148Z,47.20
2023-05-09T07:08:33.040Z,46.60
2023-05-09T07:11:02.390Z,46.40
2023-05-09T07:13:30.295Z,46.30
2023-05-09T07:15:58.334Z,46.20
2023-05-09T07:18:26.346Z,46.30
2023-05-09T07:20:54.286Z,46.40
2023-05-09T07:23:22.193Z,46.20
2023-05-09T07:25:50.180Z,46.30
2023-05-09T07:28:19.457Z,45.80
2023-05-09T07:30:47.380Z,45.80
2023-05-09T07:33:15.311Z,45.80
2023-05-09T07:35:43.262Z,45.80
2023-05-09T07:38:11.291Z,45.70
2023-05-09T07:40:39.312Z,45.60
2023-05-09T07:43:07.246Z,45.50
2023-05-09T07:45:36.635Z,45.10
2023-05-09T07:48:04.813Z,45.10
2023-05-09T07:50:32.754Z,45.10
2023-05-09T07:53:01.109Z,45.20
2023-05-09T07:55:29.015Z,45.10
2023-05-09T07:57:57.191Z,44.60
2023-05-09T08:00:25.466Z,45.00
2023-05-09T08:02:55.190Z,44.80
2023-05-09T08:05:23.240Z,43.50
2023-05-09T08:07:51.166Z,43.30
2023-05-09T08:10:19.095Z,43.20
2023-05-09T08:12:47.045Z,43.00
2023-05-09T08:15:15.190Z,42.80
2023-05-09T08:17:43.358Z,42.30
2023-05-09T08:20:13.918Z,42.10
2023-05-09T08:22:42.084Z,41.10
2023-05-09T08:25:10.451Z,42.00
2023-05-09T08:27:38.361Z,42.50
2023-05-09T08:30:07.045Z,43.70
2023-05-09T08:32:35.090Z,43.60
2023-05-09T08:35:03.049Z,43.90
2023-05-09T08:37:32.330Z,44.30
2023-05-09T08:40:00.444Z,44.50
2023-05-09T08:42:28.900Z,45.10
2023-05-09T08:44:56.897Z,45.50
2023-05-09T08:47:25.425Z,45.50
2023-05-09T08:49:54.083Z,45.50
2023-05-09T08:52:22.680Z,45.40
2023-05-09T08:54:53.420Z,45.40
2023-05-09T08:57:21.448Z,45.30
2023-05-09T08:59:50.466Z,45.20
2023-05-09T09:02:18.599Z,45.10
2023-05-09T09:04:46.937Z,45.00
2023-05-09T09:07:15.454Z,45.00
2023-05-09T09:09:45.515Z,44.90
2023-05-09T09:12:16.456Z,44.90
2023-05-09T09:14:47.547Z,44.80
2023-05-09T09:17:16.834Z,44.80
2023-05-09T09:19:46.021Z,44.70
2023-05-09T09:22:16.716Z,44.90
2023-05-09T09:24:44.736Z,44.90
2023-05-09T09:27:14.045Z,44.90
2023-05-09T09:29:41.984Z,45.10
2023-05-09T09:32:09.972Z,44.90
2023-05-09T09:34:38.273Z,44.70
2023-05-09T09:37:07.701Z,44.90
2023-05-09T09:39:35.715Z,44.90
2023-05-09T09:42:14.160Z,45.70
2023-05-09T09:44:42.095Z,45.60
2023-05-09T09:47:11.129Z,45.70
2023-05-09T09:49:39.339Z,46.10
2023-05-09T09:52:07.262Z,46.70
2023-05-09T09:54:35.275Z,47.00
2023-05-09T09:57:03.228Z,47.40
2023-05-09T09:59:32.606Z,48.00
2023-05-09T10:02:04.010Z,48.00
2023-05-09T10:04:34.582Z,47.80
2023-05-09T10:07:03.592Z,47.30
2023-05-09T10:09:31.530Z,47.10
2023-05-09T10:12:03.189Z,46.20
2023-05-09T10:14:35.125Z,45.30
2023-05-09T10:17:04.463Z,45.20
2023-05-09T10:19:32.652Z,45.00
2023-05-09T10:22:04.321Z,45.40
2023-05-09T10:24:36.784Z,44.60
2023-05-09T10:27:07.250Z,43.90
2023-05-09T10:29:38.845Z,44.00
2023-05-09T10:32:12.963Z,44.30
2023-05-09T10:34:43.472Z,44.60
2023-05-09T10:37:11.723Z,43.90
2023-05-09T10:39:39.826Z,44.30
2023-05-09T10:42:08.270Z,43.80
2023-05-09T10:44:38.502Z,43.60
2023-05-09T10:47:07.286Z,43.70
2023-05-09T10:49:37.074Z,42.70
2023-05-09T10:52:05.574Z,42.50
2023-05-09T10:54:33.764Z,42.80
2023-05-09T10:57:01.731Z,43.10
2023-05-09T10:59:38.334Z,43.00
2023-05-09T11:02:06.721Z,42.20
2023-05-09T11:04:34.689Z,42.70
2023-05-09T11:07:02.618Z,42.50
2023-05-09T11:09:33.225Z,42.50
2023-05-09T11:12:10.952Z,42.90
2023-05-09T11:14:44.598Z,42.90
2023-05-09T11:17:13.514Z,43.50
2023-05-09T11:20:00.740Z,43.40
2023-05-09T11:22:29.312Z,43.50
2023-05-09T11:25:05.685Z,44.30
2023-05-09T11:27:38.848Z,45.20
2023-05-09T11:30:09.074Z,45.80
2023-05-09T11:32:42.516Z,45.80
2023-05-09T11:35:12.144Z,45.80
2023-05-09T11:37:50.765Z,45.90
2023-05-09T11:40:19.026Z,45.00
2023-05-09T11:42:47.633Z,44.40
2023-05-09T11:45:18.033Z,44.10
2023-05-09T11:47:46.827Z,44.30
2023-05-09T11:50:15.402Z,45.10
2023-05-09T11:52:43.457Z,44.10
2023-05-09T11:55:12.789Z,43.60
2023-05-09T11:57:41.210Z,44.00
2023-05-09T12:00:10.570Z,43.50
2023-05-09T12:02:40.255Z,43.60
2023-05-09T12:05:09.510Z,43.60
2023-05-09T12:07:37.827Z,43.40
2023-05-09T12:10:06.925Z,43.10
2023-05-09T12:12:35.516Z,43.10
2023-05-09T12:15:04.673Z,43.30
2023-05-09T12:17:32.704Z,43.40
2023-05-09T12:20:04.771Z,42.20
2023-05-09T12:22:32.955Z,42.20
2023-05-09T12:25:02.453Z,41.80
2023-05-09T12:27:32.113Z,41.40
2023-05-09T12:30:01.150Z,41.80
2023-05-09T12:32:32.910Z,40.90
2023-05-09T12:35:02.530Z,40.80
2023-05-09T12:37:32.612Z,40.90
2023-05-09T12:40:04.866Z,41.20
2023-05-09T12:42:32.855Z,41.60
2023-05-09T12:45:02.523Z,41.90
2023-05-09T12:47:31.106Z,41.80
2023-05-09T12:50:00.050Z,41.90
2023-05-09T12:52:34.404Z,42.00
2023-05-09T12:55:06.645Z,42.20
2023-05-09T12:57:34.893Z,42.30
2023-05-09T13:00:03.913Z,42.70
2023-05-09T13:02:35.155Z,42.80
2023-05-09T13:05:06.880Z,43.10
2023-05-09T13:07:41.388Z,43.10
2023-05-09T13:10:13.321Z,43.40
2023-05-09T13:12:44.582Z,43.50
2023-05-09T13:15:13.378Z,43.60
2023-05-09T13:17:41.857Z,43.80
2023-05-09T13:20:10.732Z,44.00
2023-05-09T13:22:38.772Z,44.10
2023-05-09T13:25:08.749Z,44.30
2023-05-09T13:27:37.405Z,44.60
2023-05-09T13:30:07.579Z,44.60
2023-05-09T13:32:36.744Z,44.60
2023-05-09T13:35:07.593Z,44.50
2023-05-09T13:37:35.736Z,44.50
2023-05-09T13:40:04.313Z,44.50
2023-05-09T13:42:34.558Z,44.50
2023-05-09T13:45:02.466Z,44.70
2023-05-09T13:47:30.538Z,44.70
2023-05-09T13:50:00.666Z,44.60
2023-05-09T13:52:28.599Z,44.40
2023-05-09T13:54:56.506Z,44.40
2023-05-09T13:57:24.459Z,43.90
2023-05-09T13:59:53.930Z,43.60
2023-05-09T14:02:21.913Z,43.40
2023-05-09T14:04:49.881Z,56.30
2023-05-09T14:07:17.924Z,47.80
2023-05-09T14:09:48.176Z,43.20
2023-05-09T14:12:19.189Z,43.30
2023-05-09T14:14:47.115Z,43.30
2023-05-09T14:17:16.424Z,42.90
2023-05-09T14:19:44.463Z,42.70
2023-05-09T14:22:12.379Z,42.30
2023-05-09T14:24:40.902Z,43.60
2023-05-09T14:27:08.804Z,44.30
2023-05-09T14:29:41.027Z,44.40
2023-05-09T14:32:12.746Z,44.70
2023-05-09T14:34:42.233Z,45.60
2023-05-09T14:37:13.792Z,46.20
2023-05-09T14:39:42.254Z,46.70
2023-05-09T14:42:11.595Z,46.60
2023-05-09T14:44:39.539Z,46.30
2023-05-09T14:47:08.551Z,46.20
2023-05-09T14:49:37.892Z,46.20
2023-05-09T14:52:07.369Z,46.30
2023-05-09T14:54:35.497Z,46.60
2023-05-09T14:57:05.019Z,46.40
2023-05-09T14:59:34.814Z,46.40
2023-05-09T15:02:04.751Z,46.70
2023-05-09T15:04:32.742Z,46.50
2023-05-09T15:07:00.730Z,47.10
2023-05-09T15:09:30.033Z,46.80
2023-05-09T15:11:57.970Z,46.20
2023-05-09T15:14:25.897Z,46.20
2023-05-09T15:16:55.258Z,46.30
2023-05-09T15:19:23.415Z,46.00
2023-05-09T15:21:51.655Z,45.60
2023-05-09T15:24:19.574Z,45.30
2023-05-09T15:26:48.870Z,45.00
2023-05-09T15:29:16.792Z,45.10
2023-05-09T15:31:44.912Z,45.00
2023-05-09T15:34:12.911Z,44.90
2023-05-09T15:36:40.841Z,44.80
2023-05-09T15:39:08.828Z,44.70
2023-05-09T15:41:36.796Z,44.50
2023-05-09T15:44:07.337Z,44.10
2023-05-09T15:46:35.427Z,44.10
2023-05-09T15:49:03.356Z,44.30
2023-05-09T15:51:31.780Z,44.40
2023-05-09T15:54:00.058Z,44.10
2023-05-09T15:56:28.052Z,44.00
2023-05-09T15:58:56.025Z,44.30
2023-05-09T16:01:25.360Z,44.50
2023-05-09T16:03:53.492Z,44.60
2023-05-09T16:06:21.690Z,44.70
2023-05-09T16:08:49.599Z,44.60
2023-05-09T16:11:17.599Z,44.80
2023-05-09T16:13:46.599Z,45.10
2023-05-09T16:16:14.605Z,45.40
2023-05-09T16:18:43.970Z,45.60
2023-05-09T16:21:12.333Z,46.00
2023-05-09T16:23:40.592Z,46.30
2023-05-09T16:26:08.522Z,46.30
2023-05-09T16:28:36.447Z,46.40
2023-05-09T16:31:05.621Z,46.50
2023-05-09T16:33:33.554Z,46.70
2023-05-09T16:36:02.876Z,47.00
2023-05-09T16:38:31.307Z,47.10
2023-05-09T16:40:59.255Z,47.30
2023-05-09T16:43:27.190Z,47.30
2023-05-09T16:45:55.447Z,47.40
2023-05-09T16:48:23.444Z,47.50
2023-05-09T16:50:53.728Z,47.50
2023-05-09T16:53:23.665Z,47.30
2023-05-09T16:55:53.898Z,47.30
2023-05-09T16:58:21.856Z,47.20
2023-05-09T17:00:51.140Z,47.10
2023-05-09T17:03:19.098Z,46.90
2023-05-09T17:05:47.039Z,47.00
2023-05-09T17:08:15.275Z,46.90
2023-05-09T17:10:44.575Z,46.90
2023-05-09T17:13:12.568Z,46.90
2023-05-09T17:15:40.696Z,47.00
2023-05-09T17:18:08.864Z,47.40
2023-05-09T17:20:36.987Z,48.20
2023-05-09T17:23:05.184Z,48.60
2023-05-09T17:25:33.497Z,48.60
2023-05-09T17:28:02.899Z,48.90
2023-05-09T17:30:30.840Z,48.90
2023-05-09T17:32:58.838Z,49.10
2023-05-09T17:35:26.886Z,49.00
2023-05-09T17:37:55.202Z,49.00
2023-05-09T17:40:23.254Z,49.10
2023-05-09T17:42:51.260Z,49.00
2023-05-09T17:45:20.773Z,49.10
2023-05-09T17:47:49.719Z,49.10
2023-05-09T17:50:19.061Z,49.10
2023-05-09T17:52:47.505Z,49.10
2023-05-09T17:55:15.783Z,49.20
2023-05-09T17:57:43.957Z,49.20
2023-05-09T18:00:13.020Z,49.20
2023-05-09T18:02:42.670Z,49.30
2023-05-09T18:05:11.135Z,49.20
2023-05-09T18:07:40.005Z,49.30
2023-05-09T18:10:08.887Z,49.30
2023-05-09T18:12:37.469Z,49.30
2023-05-09T18:15:06.028Z,49.80
2023-05-09T18:17:33.991Z,49.60
2023-05-09T18:20:03.497Z,49.80
2023-05-09T18:22:31.491Z,49.80
2023-05-09T18:24:59.537Z,49.70
2023-05-09T18:27:27.581Z,49.80
2023-05-09T18:29:55.608Z,49.70
2023-05-09T18:32:23.647Z,49.80
2023-05-09T18:34:51.736Z,49.80
2023-05-09T18:37:22.658Z,49.80
2023-05-09T18:39:50.642Z,49.80
2023-05-09T18:42:18.557Z,49.90
2023-05-09T18:44:46.558Z,49.90
2023-05-09T18:47:15.269Z,51.60
2023-05-09T18:49:43.246Z,52.00
2023-05-09T18:52:11.369Z,51.50
2023-05-09T18:54:41.222Z,51.60
2023-05-09T18:57:09.957Z,51.80
2023-05-09T18:59:40.816Z,51.70
2023-05-09T19:02:09.161Z,51.70
2023-05-09T19:04:37.122Z,51.60
2023-05-09T19:07:05.197Z,51.50
2023-05-09T19:09:33.671Z,51.50
2023-05-09T19:12:05.078Z,51.50
2023-05-09T19:14:33.279Z,51.60
2023-05-09T19:17:01.310Z,51.60
2023-05-09T19:19:29.322Z,51.60
2023-05-09T19:21:57.290Z,51.60
2023-05-09T19:24:25.238Z,51.60
2023-05-09T19:26:53.195Z,51.60
2023-05-09T19:29:22.501Z,51.60
2023-05-09T19:31:50.456Z,51.60
2023-05-09T19:34:18.404Z,51.70
2023-05-09T19:36:46.432Z,51.70
2023-05-09T19:39:14.378Z,51.70
2023-05-09T19:41:45.450Z,51.70
2023-05-09T19:44:13.350Z,51.70
2023-05-09T19:46:43.927Z,51.70
2023-05-09T19:49:11.941Z,51.60
2023-05-09T19:51:40.554Z,51.70
2023-05-09T19:54:08.673Z,51.70
2023-05-09T19:56:36.598Z,51.70
2023-05-09T19:59:04.556Z,51.70
2023-05-09T20:01:33.724Z,51.80
2023-05-09T20:04:03.207Z,51.70
2023-05-09T20:06:31.171Z,51.80
2023-05-09T20:08:59.115Z,51.70
2023-05-09T20:11:27.627Z,51.80
2023-05-09T20:13:55.818Z,51.70
2023-05-09T20:16:23.883Z,51.70
2023-05-09T20:18:52.658Z,51.80
2023-05-09T20:21:21.966Z,51.80
2023-05-09T20:23:50.036Z,51.90
2023-05-09T20:26:17.965Z,51.90
2023-05-09T20:28:45.933Z,51.80
2023-05-09T20:31:13.874Z,51.80
2023-05-09T20:33:41.942Z,51.80
2023-05-09T20:36:11.197Z,51.80
2023-05-09T20:38:40.539Z,51.80
2023-05-09T20:41:08.492Z,51.80
2023-05-09T20:43:36.447Z,51.80
2023-05-09T20:46:04.479Z,51.80
2023-05-09T20:48:32.513Z,51.90
2023-05-09T20:51:00.453Z,51.90
2023-05-09T20:53:31.400Z,51.90
2023-05-09T20:56:00.852Z,51.80
2023-05-09T20:58:31.230Z,51.90
2023-05-09T21:00:59.339Z,51.90
2023-05-09T21:03:27.405Z,51.90
2023-05-09T21:05:55.388Z,51.90
2023-05-09T21:08:24.114Z,51.90
2023-05-09T21:10:52.605Z,51.90
2023-05-09T21:13:21.979Z,51.90
2023-05-09T21:15:50.560Z,51.90
2023-05-09T21:18:18.580Z,51.90
2023-05-09T21:20:46.524Z,51.80
2023-05-09T21:23:14.496Z,51.90
2023-05-09T21:25:42.431Z,51.90
2023-05-09T21:28:10.364Z,51.90
2023-05-09T21:30:39.620Z,51.80
2023-05-09T21:33:07.571Z,51.90
2023-05-09T21:35:36.155Z,51.80
2023-05-09T21:38:04.091Z,51.80
2023-05-09T21:40:31.990Z,51.80
2023-05-09T21:42:59.909Z,51.80
2023-05-09T21:45:27.831Z,51.80
2023-05-09T21:47:57.207Z,51.80
2023-05-09T21:50:25.176Z,52.90
2023-05-09T21:52:53.494Z,52.40
2023-05-09T21:55:21.420Z,52.40
2023-05-09T21:57:49.375Z,52.50
2023-05-09T22:00:18.171Z,52.50
2023-05-09T22:02:47.071Z,52.50
2023-05-09T22:05:16.429Z,52.50
2023-05-09T22:07:44.365Z,52.60
2023-05-09T22:10:12.335Z,52.50
2023-05-09T22:12:40.266Z,52.50
2023-05-09T22:15:08.828Z,52.60
2023-05-09T22:17:36.931Z,52.60
2023-05-09T22:20:05.314Z,52.60
2023-05-09T22:22:34.629Z,52.60
2023-05-09T22:25:02.581Z,52.70
2023-05-09T22:27:30.489Z,52.60
2023-05-09T22:29:58.425Z,52.60
2023-05-09T22:32:26.575Z,52.60
2023-05-09T22:34:55.220Z,52.60
2023-05-09T22:37:23.137Z,52.60
2023-05-09T22:39:52.444Z,52.50
2023-05-09T22:42:20.378Z,52.60
2023-05-09T22:44:49.864Z,52.50
2023-05-09T22:47:17.898Z,52.50
2023-05-09T22:49:46.029Z,52.60
2023-05-09T22:52:14.030Z,52.50
2023-05-09T22:54:42.193Z,52.50
2023-05-09T22:57:11.553Z,52.50
2023-05-09T22:59:39.493Z,52.50
2023-05-09T23:02:07.521Z,52.50
2023-05-09T23:04:35.498Z,52.40
2023-05-09T23:07:03.454Z,52.50
2023-05-09T23:09:31.494Z,52.60
2023-05-09T23:11:59.633Z,53.20
2023-05-09T23:14:28.985Z,52.40
2023-05-09T23:16:57.275Z,52.40
2023-05-09T23:19:25.229Z,52.40
2023-05-09T23:21:53.203Z,52.40
2023-05-09T23:24:21.158Z,52.40
2023-05-09T23:26:49.076Z,52.40
2023-05-09T23:29:17.038Z,52.40
2023-05-09T23:31:46.461Z,52.40
2023-05-09T23:34:14.551Z,52.50
2023-05-09T23:36:42.511Z,52.30
2023-05-09T23:39:10.782Z,52.30
2023-05-09T23:41:38.910Z,52.30
2023-05-09T23:44:07.707Z,52.30
2023-05-09T23:46:35.748Z,52.30
2023-05-09T23:49:05.070Z,52.40
2023-05-09T23:51:33.012Z,52.30
2023-05-09T23:54:00.944Z,52.30
2023-05-09T23:56:28.956Z,52.40
2023-05-09T23:58:56.889Z,52.30
